sensor_id;sensor_type;location;lat;lon;timestamp;pressure;altitude;pressure_sealevel;temperature;humidity
15880;BME280;61999;51.514;14.614;2022-11-23T00:01:16;98837.00;;;-1.79;56.63
15880;BME280;61999;51.514;14.614;2022-11-23T00:03:45;98841.34;;;-1.80;56.68
15880;BME280;61999;51.514;14.614;2022-11-23T00:06:14;98836.19;;;-1.80;56.40
15880;BME280;61999;51.514;14.614;2022-11-23T00:08:44;98843.88;;;-1.78;56.55
15880;BME280;61999;51.514;14.614;2022-11-23T00:11:13;98840.53;;;-1.80;56.74
15880;BME280;61999;51.514;14.614;2022-11-23T00:13:41;98845.69;;;-1.80;56.90
15880;BME280;61999;51.514;14.614;2022-11-23T00:16:13;98842.19;;;-1.79;56.80
15880;BME280;61999;51.514;14.614;2022-11-23T00:18:42;98842.19;;;-1.79;56.53
15880;BME280;61999;51.514;14.614;2022-11-23T00:21:12;98834.53;;;-1.81;56.29
15880;BME280;61999;51.514;14.614;2022-11-23T00:23:40;98833.69;;;-1.81;56.49
15880;BME280;61999;51.514;14.614;2022-11-23T00:26:10;98828.44;;;-1.80;56.71
15880;BME280;61999;51.514;14.614;2022-11-23T00:28:38;98833.53;;;-1.78;56.63
15880;BME280;61999;51.514;14.614;2022-11-23T00:31:07;98829.97;;;-1.76;56.89
15880;BME280;61999;51.514;14.614;2022-11-23T00:33:36;98828.13;;;-1.74;56.52
15880;BME280;61999;51.514;14.614;2022-11-23T00:36:07;98833.16;;;-1.71;56.19
15880;BME280;61999;51.514;14.614;2022-11-23T00:38:37;98835.72;;;-1.71;56.75
15880;BME280;61999;51.514;14.614;2022-11-23T00:41:10;98837.28;;;-1.67;56.35
15880;BME280;61999;51.514;14.614;2022-11-23T00:43:39;98835.59;;;-1.68;56.95
15880;BME280;61999;51.514;14.614;2022-11-23T00:46:12;98832.94;;;-1.66;56.99
15880;BME280;61999;51.514;14.614;2022-11-23T00:48:41;98833.00;;;-1.68;56.60
15880;BME280;61999;51.514;14.614;2022-11-23T00:51:11;98838.94;;;-1.66;56.57
15880;BME280;61999;51.514;14.614;2022-11-23T00:53:39;98837.13;;;-1.63;56.06
15880;BME280;61999;51.514;14.614;2022-11-23T00:56:07;98836.19;;;-1.61;56.96
15880;BME280;61999;51.514;14.614;2022-11-23T00:58:37;98830.03;;;-1.58;57.05
15880;BME280;61999;51.514;14.614;2022-11-23T01:01:08;98830.75;;;-1.56;56.97
15880;BME280;61999;51.514;14.614;2022-11-23T01:03:39;98838.47;;;-1.55;56.94
15880;BME280;61999;51.514;14.614;2022-11-23T01:06:10;98834.88;;;-1.52;56.95
15880;BME280;61999;51.514;14.614;2022-11-23T01:08:39;98839.91;;;-1.49;56.65
15880;BME280;61999;51.514;14.614;2022-11-23T01:11:10;98841.56;;;-1.48;56.58
15880;BME280;61999;51.514;14.614;2022-11-23T01:13:40;98823.47;;;-1.48;56.68
15880;BME280;61999;51.514;14.614;2022-11-23T01:16:13;98829.56;;;-1.49;56.68
15880;BME280;61999;51.514;14.614;2022-11-23T01:18:44;98842.41;;;-1.48;56.61
15880;BME280;61999;51.514;14.614;2022-11-23T01:21:12;98838.09;;;-1.47;56.88
15880;BME280;61999;51.514;14.614;2022-11-23T01:23:40;98834.59;;;-1.46;56.84
15880;BME280;61999;51.514;14.614;2022-11-23T01:26:09;98827.59;;;-1.44;56.48
15880;BME280;61999;51.514;14.614;2022-11-23T01:28:40;98827.59;;;-1.44;56.29
15880;BME280;61999;51.514;14.614;2022-11-23T01:31:11;98825.00;;;-1.44;56.54
15880;BME280;61999;51.514;14.614;2022-11-23T01:33:40;98822.44;;;-1.44;56.42
15880;BME280;61999;51.514;14.614;2022-11-23T01:36:09;98827.50;;;-1.43;56.29
15880;BME280;61999;51.514;14.614;2022-11-23T01:38:38;98822.28;;;-1.41;56.34
15880;BME280;61999;51.514;14.614;2022-11-23T01:41:07;98821.44;;;-1.41;56.57
15880;BME280;61999;51.514;14.614;2022-11-23T01:43:36;98813.75;;;-1.43;56.47
15880;BME280;61999;51.514;14.614;2022-11-23T01:46:05;98813.69;;;-1.41;56.69
15880;BME280;61999;51.514;14.614;2022-11-23T01:48:39;98821.50;;;-1.43;56.04
15880;BME280;61999;51.514;14.614;2022-11-23T01:51:12;98819.06;;;-1.46;56.58
15880;BME280;61999;51.514;14.614;2022-11-23T01:53:42;98815.72;;;-1.48;56.26
15880;BME280;61999;51.514;14.614;2022-11-23T01:56:16;98817.56;;;-1.50;56.19
15880;BME280;61999;51.514;14.614;2022-11-23T01:58:51;98824.56;;;-1.52;55.88
15880;BME280;61999;51.514;14.614;2022-11-23T02:01:21;98828.94;;;-1.54;56.07
15880;BME280;61999;51.514;14.614;2022-11-23T02:03:50;98830.75;;;-1.56;55.99
15880;BME280;61999;51.514;14.614;2022-11-23T02:06:21;98826.56;;;-1.59;56.10
15880;BME280;61999;51.514;14.614;2022-11-23T02:08:50;98826.66;;;-1.60;55.73
15880;BME280;61999;51.514;14.614;2022-11-23T02:11:19;98832.75;;;-1.61;56.05
15880;BME280;61999;51.514;14.614;2022-11-23T02:13:49;98833.63;;;-1.62;56.17
15880;BME280;61999;51.514;14.614;2022-11-23T02:16:18;98830.31;;;-1.65;55.94
15880;BME280;61999;51.514;14.614;2022-11-23T02:18:49;98835.59;;;-1.68;55.49
15880;BME280;61999;51.514;14.614;2022-11-23T02:21:19;98832.25;;;-1.70;56.01
15880;BME280;61999;51.514;14.614;2022-11-23T02:23:54;98836.66;;;-1.72;56.00
15880;BME280;61999;51.514;14.614;2022-11-23T02:26:30;98829.97;;;-1.76;55.48
15880;BME280;61999;51.514;14.614;2022-11-23T02:29:05;98832.72;;;-1.79;55.63
15880;BME280;61999;51.514;14.614;2022-11-23T02:31:34;98841.34;;;-1.80;55.29
15880;BME280;61999;51.514;14.614;2022-11-23T02:34:02;98853.50;;;-1.82;55.86
15880;BME280;61999;51.514;14.614;2022-11-23T02:36:38;98850.16;;;-1.84;55.55
15880;BME280;61999;51.514;14.614;2022-11-23T02:39:10;98854.84;;;-1.92;55.54
15880;BME280;61999;51.514;14.614;2022-11-23T02:41:42;98863.59;;;-1.95;55.61
15880;BME280;61999;51.514;14.614;2022-11-23T02:44:36;98859.53;;;-2.00;55.62
15880;BME280;61999;51.514;14.614;2022-11-23T02:47:08;98869.31;;;-2.07;55.61
15880;BME280;61999;51.514;14.614;2022-11-23T02:49:38;98863.53;;;-2.12;55.27
15880;BME280;61999;51.514;14.614;2022-11-23T02:52:08;98870.59;;;-2.16;55.53
15880;BME280;61999;51.514;14.614;2022-11-23T02:54:36;98870.72;;;-2.19;55.36
15880;BME280;61999;51.514;14.614;2022-11-23T02:57:05;98869.13;;;-2.21;55.08
15880;BME280;61999;51.514;14.614;2022-11-23T02:59:33;98874.50;;;-2.26;55.43
15880;BME280;61999;51.514;14.614;2022-11-23T03:02:03;98863.47;;;-2.29;55.57
15880;BME280;61999;51.514;14.614;2022-11-23T03:04:31;98864.59;;;-2.35;55.17
15880;BME280;61999;51.514;14.614;2022-11-23T03:06:59;98868.13;;;-2.38;55.31
15880;BME280;61999;51.514;14.614;2022-11-23T03:09:27;98876.03;;;-2.41;55.07
15880;BME280;61999;51.514;14.614;2022-11-23T03:11:55;98869.31;;;-2.45;55.48
15880;BME280;61999;51.514;14.614;2022-11-23T03:14:24;98878.94;;;-2.48;54.86
15880;BME280;61999;51.514;14.614;2022-11-23T03:16:52;98876.56;;;-2.53;55.50
15880;BME280;61999;51.514;14.614;2022-11-23T03:19:20;98882.72;;;-2.56;54.93
15880;BME280;61999;51.514;14.614;2022-11-23T03:21:48;98884.50;;;-2.58;55.16
15880;BME280;61999;51.514;14.614;2022-11-23T03:24:16;98885.56;;;-2.62;55.44
15880;BME280;61999;51.514;14.614;2022-11-23T03:26:44;98893.41;;;-2.65;55.14
15880;BME280;61999;51.514;14.614;2022-11-23T03:29:12;98890.06;;;-2.67;55.30
15880;BME280;61999;51.514;14.614;2022-11-23T03:31:41;98888.38;;;-2.68;55.27
15880;BME280;61999;51.514;14.614;2022-11-23T03:34:09;98879.16;;;-2.73;55.12
15880;BME280;61999;51.514;14.614;2022-11-23T03:36:37;98888.78;;;-2.77;55.33
15880;BME280;61999;51.514;14.614;2022-11-23T03:39:05;98887.25;;;-2.81;55.41
15880;BME280;61999;51.514;14.614;2022-11-23T03:41:33;98886.44;;;-2.82;55.43
15880;BME280;61999;51.514;14.614;2022-11-23T03:44:01;98882.22;;;-2.84;55.12
15880;BME280;61999;51.514;14.614;2022-11-23T03:46:30;98880.53;;;-2.85;55.05
15880;BME280;61999;51.514;14.614;2022-11-23T03:48:59;98892.69;;;-2.87;55.45
15880;BME280;61999;51.514;14.614;2022-11-23T03:51:27;98893.66;;;-2.90;54.58
15880;BME280;61999;51.514;14.614;2022-11-23T03:53:54;98892.91;;;-2.93;55.28
15880;BME280;61999;51.514;14.614;2022-11-23T03:56:22;98894.78;;;-2.97;55.52
15880;BME280;61999;51.514;14.614;2022-11-23T03:58:50;98892.34;;;-3.00;55.12
15880;BME280;61999;51.514;14.614;2022-11-23T04:01:18;98900.16;;;-3.02;55.22
15880;BME280;61999;51.514;14.614;2022-11-23T04:03:46;98892.63;;;-3.06;54.78
15880;BME280;61999;51.514;14.614;2022-11-23T04:06:15;98894.41;;;-3.08;54.81
15880;BME280;61999;51.514;14.614;2022-11-23T04:08:43;98888.50;;;-3.10;54.91
15880;BME280;61999;51.514;14.614;2022-11-23T04:11:11;98891.97;;;-3.11;54.83
15880;BME280;61999;51.514;14.614;2022-11-23T04:13:38;98888.69;;;-3.15;55.10
15880;BME280;61999;51.514;14.614;2022-11-23T04:16:07;98895.63;;;-3.17;54.95
15880;BME280;61999;51.514;14.614;2022-11-23T04:18:34;98892.31;;;-3.19;55.02
15880;BME280;61999;51.514;14.614;2022-11-23T04:21:02;98897.44;;;-3.19;55.22
15880;BME280;61999;51.514;14.614;2022-11-23T04:23:32;98890.72;;;-3.23;55.22
15880;BME280;61999;51.514;14.614;2022-11-23T04:26:00;98894.22;;;-3.24;55.25
15880;BME280;61999;51.514;14.614;2022-11-23T04:28:28;98897.69;;;-3.25;54.89
15880;BME280;61999;51.514;14.614;2022-11-23T04:30:55;98895.19;;;-3.27;55.38
15880;BME280;61999;51.514;14.614;2022-11-23T04:33:24;98887.38;;;-3.25;55.39
15880;BME280;61999;51.514;14.614;2022-11-23T04:35:52;98895.09;;;-3.25;55.37
15880;BME280;61999;51.514;14.614;2022-11-23T04:38:20;98887.38;;;-3.25;55.14
15880;BME280;61999;51.514;14.614;2022-11-23T04:40:49;98887.44;;;-3.27;55.31
15880;BME280;61999;51.514;14.614;2022-11-23T04:43:17;98885.72;;;-3.26;55.43
15880;BME280;61999;51.514;14.614;2022-11-23T04:45:44;98888.38;;;-3.28;55.34
15880;BME280;61999;51.514;14.614;2022-11-23T04:48:12;98883.22;;;-3.28;55.43
15880;BME280;61999;51.514;14.614;2022-11-23T04:50:40;98895.19;;;-3.27;55.60
15880;BME280;61999;51.514;14.614;2022-11-23T04:53:10;98897.69;;;-3.25;55.50
15880;BME280;61999;51.514;14.614;2022-11-23T04:55:38;98902.84;;;-3.25;55.70
15880;BME280;61999;51.514;14.614;2022-11-23T04:58:07;98902.84;;;-3.25;55.62
15880;BME280;61999;51.514;14.614;2022-11-23T05:00:35;98913.94;;;-3.23;55.72
15880;BME280;61999;51.514;14.614;2022-11-23T05:03:03;98915.72;;;-3.25;55.77
15880;BME280;61999;51.514;14.614;2022-11-23T05:05:31;98910.53;;;-3.24;55.58
15880;BME280;61999;51.514;14.614;2022-11-23T05:07:59;98907.84;;;-3.22;55.80
15880;BME280;61999;51.514;14.614;2022-11-23T05:10:27;98908.66;;;-3.20;55.59
15880;BME280;61999;51.514;14.614;2022-11-23T05:12:54;98910.38;;;-3.20;55.88
15880;BME280;61999;51.514;14.614;2022-11-23T05:15:24;98916.38;;;-3.20;55.90
15880;BME280;61999;51.514;14.614;2022-11-23T05:17:52;98914.63;;;-3.19;55.68
15880;BME280;61999;51.514;14.614;2022-11-23T05:20:24;98918.13;;;-3.20;55.49
15880;BME280;61999;51.514;14.614;2022-11-23T05:22:52;98906.06;;;-3.20;55.33
15880;BME280;61999;51.514;14.614;2022-11-23T05:25:20;98902.72;;;-3.22;55.14
15880;BME280;61999;51.514;14.614;2022-11-23T05:27:48;98906.19;;;-3.23;55.33
15880;BME280;61999;51.514;14.614;2022-11-23T05:30:16;98906.19;;;-3.23;55.35
15880;BME280;61999;51.514;14.614;2022-11-23T05:32:46;98908.00;;;-3.25;54.97
15880;BME280;61999;51.514;14.614;2022-11-23T05:35:14;98897.81;;;-3.28;55.42
15880;BME280;61999;51.514;14.614;2022-11-23T05:37:42;98900.38;;;-3.28;55.67
15880;BME280;61999;51.514;14.614;2022-11-23T05:40:11;98897.81;;;-3.28;55.67
15880;BME280;61999;51.514;14.614;2022-11-23T05:42:39;98896.16;;;-3.29;55.63
15880;BME280;61999;51.514;14.614;2022-11-23T05:45:08;98897.06;;;-3.30;55.61
15880;BME280;61999;51.514;14.614;2022-11-23T05:47:37;98899.63;;;-3.30;55.48
15880;BME280;61999;51.514;14.614;2022-11-23T05:50:08;98909.84;;;-3.29;55.64
15880;BME280;61999;51.514;14.614;2022-11-23T05:52:36;98905.63;;;-3.30;55.40
15880;BME280;61999;51.514;14.614;2022-11-23T05:55:04;98903.03;;;-3.30;55.71
15880;BME280;61999;51.514;14.614;2022-11-23T05:57:32;98899.50;;;-3.27;55.93
15880;BME280;61999;51.514;14.614;2022-11-23T06:00:00;98894.22;;;-3.24;56.14
15880;BME280;61999;51.514;14.614;2022-11-23T06:02:28;98899.13;;;-3.18;56.11
15880;BME280;61999;51.514;14.614;2022-11-23T06:04:56;98901.56;;;-3.15;55.82
15880;BME280;61999;51.514;14.614;2022-11-23T06:07:25;98905.69;;;-3.11;55.77
15880;BME280;61999;51.514;14.614;2022-11-23T06:09:53;98905.69;;;-3.11;56.20
15880;BME280;61999;51.514;14.614;2022-11-23T06:12:21;98905.69;;;-3.11;56.07
15880;BME280;61999;51.514;14.614;2022-11-23T06:14:49;98905.69;;;-3.11;55.65
15880;BME280;61999;51.514;14.614;2022-11-23T06:17:16;98906.53;;;-3.10;55.92
15880;BME280;61999;51.514;14.614;2022-11-23T06:19:44;98918.38;;;-3.06;56.14
15880;BME280;61999;51.514;14.614;2022-11-23T06:22:12;98926.06;;;-3.05;56.07
15880;BME280;61999;51.514;14.614;2022-11-23T06:24:42;98912.28;;;-3.04;55.83
15880;BME280;61999;51.514;14.614;2022-11-23T06:27:10;98912.28;;;-3.04;55.76
15880;BME280;61999;51.514;14.614;2022-11-23T06:29:42;98918.25;;;-3.03;55.77
15880;BME280;61999;51.514;14.614;2022-11-23T06:32:10;98918.25;;;-3.03;56.01
15880;BME280;61999;51.514;14.614;2022-11-23T06:34:38;98929.34;;;-3.01;56.30
15880;BME280;61999;51.514;14.614;2022-11-23T06:37:06;98924.91;;;-2.97;56.20
15880;BME280;61999;51.514;14.614;2022-11-23T06:39:34;98926.50;;;-2.95;55.83
15880;BME280;61999;51.514;14.614;2022-11-23T06:42:03;98929.00;;;-2.93;55.94
15880;BME280;61999;51.514;14.614;2022-11-23T06:44:42;98918.69;;;-2.93;55.94
15880;BME280;61999;51.514;14.614;2022-11-23T06:47:10;98930.72;;;-2.92;55.79
15880;BME280;61999;51.514;14.614;2022-11-23T06:49:41;98927.31;;;-2.93;55.90
15880;BME280;61999;51.514;14.614;2022-11-23T06:52:08;98925.56;;;-2.92;56.10
15880;BME280;61999;51.514;14.614;2022-11-23T06:54:36;98928.06;;;-2.91;55.64
15880;BME280;61999;51.514;14.614;2022-11-23T06:57:08;98930.59;;;-2.89;55.78
15880;BME280;61999;51.514;14.614;2022-11-23T06:59:35;98934.81;;;-2.88;55.97
15880;BME280;61999;51.514;14.614;2022-11-23T07:02:06;98929.66;;;-2.88;55.88
15880;BME280;61999;51.514;14.614;2022-11-23T07:04:34;98927.09;;;-2.88;55.73
15880;BME280;61999;51.514;14.614;2022-11-23T07:07:02;98933.16;;;-2.89;55.75
15880;BME280;61999;51.514;14.614;2022-11-23T07:09:29;98928.78;;;-2.87;56.10
15880;BME280;61999;51.514;14.614;2022-11-23T07:12:00;98940.75;;;-2.86;55.93
15880;BME280;61999;51.514;14.614;2022-11-23T07:14:29;98942.44;;;-2.85;56.19
15880;BME280;61999;51.514;14.614;2022-11-23T07:16:57;98940.72;;;-2.85;56.16
15880;BME280;61999;51.514;14.614;2022-11-23T07:19:25;98946.69;;;-2.84;56.18
15880;BME280;61999;51.514;14.614;2022-11-23T07:21:52;98946.56;;;-2.81;56.43
15880;BME280;61999;51.514;14.614;2022-11-23T07:24:20;98937.09;;;-2.81;56.40
15880;BME280;61999;51.514;14.614;2022-11-23T07:26:49;98939.41;;;-2.74;55.76
15880;BME280;61999;51.514;14.614;2022-11-23T07:29:17;98943.34;;;-2.66;56.44
15880;BME280;61999;51.514;14.614;2022-11-23T07:31:46;98948.22;;;-2.60;56.28
15880;BME280;61999;51.514;14.614;2022-11-23T07:34:14;98949.78;;;-2.56;56.23
15880;BME280;61999;51.514;14.614;2022-11-23T07:36:42;98953.84;;;-2.50;56.30
15880;BME280;61999;51.514;14.614;2022-11-23T07:39:10;98955.38;;;-2.46;56.34
15880;BME280;61999;51.514;14.614;2022-11-23T07:41:38;98953.50;;;-2.42;56.64
15880;BME280;61999;51.514;14.614;2022-11-23T07:44:06;98959.28;;;-2.37;56.74
15880;BME280;61999;51.514;14.614;2022-11-23T07:46:34;98959.16;;;-2.34;56.49
15880;BME280;61999;51.514;14.614;2022-11-23T07:49:03;98960.72;;;-2.30;56.53
15880;BME280;61999;51.514;14.614;2022-11-23T07:51:31;98964.06;;;-2.28;56.08
15880;BME280;61999;51.514;14.614;2022-11-23T07:53:59;98958.06;;;-2.28;55.88
15880;BME280;61999;51.514;14.614;2022-11-23T07:56:27;98955.28;;;-2.24;56.06
15880;BME280;61999;51.514;14.614;2022-11-23T07:58:55;98961.19;;;-2.22;56.33
15880;BME280;61999;51.514;14.614;2022-11-23T08:01:23;98955.00;;;-2.18;55.97
15880;BME280;61999;51.514;14.614;2022-11-23T08:03:51;98957.41;;;-2.13;56.44
15880;BME280;61999;51.514;14.614;2022-11-23T08:06:20;98957.03;;;-2.05;57.06
15880;BME280;61999;51.514;14.614;2022-11-23T08:08:48;98960.19;;;-1.99;57.03
15880;BME280;61999;51.514;14.614;2022-11-23T08:11:16;98965.69;;;-1.88;57.31
15880;BME280;61999;51.514;14.614;2022-11-23T08:13:46;98965.06;;;-1.74;57.08
15880;BME280;61999;51.514;14.614;2022-11-23T08:16:14;98965.38;;;-1.61;56.91
15880;BME280;61999;51.514;14.614;2022-11-23T08:18:42;98969.19;;;-1.51;57.64
15880;BME280;61999;51.514;14.614;2022-11-23T08:21:10;98967.91;;;-1.42;57.65
15880;BME280;61999;51.514;14.614;2022-11-23T08:23:39;98970.00;;;-1.31;57.23
15880;BME280;61999;51.514;14.614;2022-11-23T08:26:07;98960.97;;;-1.23;57.42
15880;BME280;61999;51.514;14.614;2022-11-23T08:28:38;98958.63;;;-1.10;57.11
15880;BME280;61999;51.514;14.614;2022-11-23T08:31:07;98958.78;;;-0.95;57.13
15880;BME280;61999;51.514;14.614;2022-11-23T08:33:35;98964.19;;;-0.83;57.26
15880;BME280;61999;51.514;14.614;2022-11-23T08:36:05;98959.81;;;-0.65;57.22
15880;BME280;61999;51.514;14.614;2022-11-23T08:38:34;98963.16;;;-0.45;56.78
15880;BME280;61999;51.514;14.614;2022-11-23T08:41:04;98960.38;;;-0.25;57.34
15880;BME280;61999;51.514;14.614;2022-11-23T08:43:32;98961.91;;;-0.05;57.38
15880;BME280;61999;51.514;14.614;2022-11-23T08:46:01;98965.44;;;0.10;57.22
15880;BME280;61999;51.514;14.614;2022-11-23T08:48:32;98965.44;;;0.26;56.68
15880;BME280;61999;51.514;14.614;2022-11-23T08:51:00;98961.78;;;0.30;55.53
15880;BME280;61999;51.514;14.614;2022-11-23T08:53:28;98970.00;;;0.38;55.30
15880;BME280;61999;51.514;14.614;2022-11-23T08:55:59;98965.63;;;0.54;55.58
15880;BME280;61999;51.514;14.614;2022-11-23T08:58:29;98966.63;;;0.68;55.77
15880;BME280;61999;51.514;14.614;2022-11-23T09:00:57;98963.34;;;0.80;55.00
15880;BME280;61999;51.514;14.614;2022-11-23T09:03:25;98967.09;;;0.90;55.26
15880;BME280;61999;51.514;14.614;2022-11-23T09:05:58;98970.66;;;1.03;55.12
15880;BME280;61999;51.514;14.614;2022-11-23T09:08:28;98970.13;;;1.13;55.33
15880;BME280;61999;51.514;14.614;2022-11-23T09:10:59;98965.31;;;1.21;55.20
15880;BME280;61999;51.514;14.614;2022-11-23T09:13:29;98962.66;;;1.22;54.61
15880;BME280;61999;51.514;14.614;2022-11-23T09:15:58;98966.81;;;1.25;54.78
15880;BME280;61999;51.514;14.614;2022-11-23T09:18:28;98977.03;;;1.28;54.50
15880;BME280;61999;51.514;14.614;2022-11-23T09:21:02;98972.66;;;1.28;54.19
15880;BME280;61999;51.514;14.614;2022-11-23T09:23:31;98977.75;;;1.30;54.11
15880;BME280;61999;51.514;14.614;2022-11-23T09:26:00;98975.72;;;1.35;53.99
15880;BME280;61999;51.514;14.614;2022-11-23T09:28:31;98975.47;;;1.40;53.98
15880;BME280;61999;51.514;14.614;2022-11-23T09:31:03;98976.69;;;1.48;54.40
15880;BME280;61999;51.514;14.614;2022-11-23T09:33:31;98966.69;;;1.57;54.25
15880;BME280;61999;51.514;14.614;2022-11-23T09:36:01;98972.81;;;1.70;54.63
15880;BME280;61999;51.514;14.614;2022-11-23T09:38:30;98975.06;;;1.76;54.54
15880;BME280;61999;51.514;14.614;2022-11-23T09:41:46;98965.00;;;1.84;54.17
15880;BME280;61999;51.514;14.614;2022-11-23T09:44:31;98966.72;;;1.85;54.35
15880;BME280;61999;51.514;14.614;2022-11-23T09:47:23;98959.31;;;1.93;53.58
15880;BME280;61999;51.514;14.614;2022-11-23T09:50:02;98967.38;;;2.03;53.63
15880;BME280;61999;51.514;14.614;2022-11-23T09:52:39;98962.63;;;2.10;53.61
15880;BME280;61999;51.514;14.614;2022-11-23T09:55:16;98954.59;;;2.27;53.80
15880;BME280;61999;51.514;14.614;2022-11-23T09:57:46;98953.44;;;2.46;53.95
15880;BME280;61999;51.514;14.614;2022-11-23T10:00:20;98952.66;;;2.58;53.73
15880;BME280;61999;51.514;14.614;2022-11-23T10:02:49;98943.47;;;2.79;53.96
15880;BME280;61999;51.514;14.614;2022-11-23T10:05:22;98952.38;;;3.02;53.90
15880;BME280;61999;51.514;14.614;2022-11-23T10:08:03;98944.81;;;3.25;53.86
15880;BME280;61999;51.514;14.614;2022-11-23T10:10:42;98946.13;;;3.45;53.87
15880;BME280;61999;51.514;14.614;2022-11-23T10:13:30;98951.09;;;3.61;53.40
15880;BME280;61999;51.514;14.614;2022-11-23T10:16:28;98945.47;;;3.80;53.70
15880;BME280;61999;51.514;14.614;2022-11-23T10:19:10;98945.34;;;3.94;53.65
15880;BME280;61999;51.514;14.614;2022-11-23T10:21:53;98940.22;;;4.05;53.50
15880;BME280;61999;51.514;14.614;2022-11-23T10:24:32;98934.44;;;4.13;52.93
15880;BME280;61999;51.514;14.614;2022-11-23T10:27:02;98937.25;;;4.23;52.19
15880;BME280;61999;51.514;14.614;2022-11-23T10:29:36;98943.69;;;4.30;52.11
15880;BME280;61999;51.514;14.614;2022-11-23T10:32:21;98937.31;;;4.34;51.30
15880;BME280;61999;51.514;14.614;2022-11-23T10:35:03;98935.94;;;4.41;51.22
15880;BME280;61999;51.514;14.614;2022-11-23T10:37:32;98936.63;;;4.56;51.41
15880;BME280;61999;51.514;14.614;2022-11-23T10:40:00;98932.28;;;4.68;51.47
15880;BME280;61999;51.514;14.614;2022-11-23T10:42:32;98935.94;;;4.89;51.57
15880;BME280;61999;51.514;14.614;2022-11-23T10:45:03;98932.44;;;5.13;51.93
15880;BME280;61999;51.514;14.614;2022-11-23T10:47:39;98919.94;;;5.40;51.20
15880;BME280;61999;51.514;14.614;2022-11-23T10:50:25;98922.84;;;5.71;51.18
15880;BME280;61999;51.514;14.614;2022-11-23T10:52:59;98920.91;;;5.95;51.60
15880;BME280;61999;51.514;14.614;2022-11-23T10:55:30;98922.03;;;6.25;51.50
15880;BME280;61999;51.514;14.614;2022-11-23T10:58:00;98906.69;;;6.32;49.81
15880;BME280;61999;51.514;14.614;2022-11-23T11:00:28;98909.13;;;6.56;50.14
15880;BME280;61999;51.514;14.614;2022-11-23T11:02:58;98910.97;;;6.76;48.89
15880;BME280;61999;51.514;14.614;2022-11-23T11:05:33;98916.56;;;7.04;48.64
15880;BME280;61999;51.514;14.614;2022-11-23T11:08:28;98912.25;;;7.45;48.73
15880;BME280;61999;51.514;14.614;2022-11-23T11:10:59;98908.47;;;7.68;47.50
15880;BME280;61999;51.514;14.614;2022-11-23T11:13:40;98907.13;;;8.05;47.29
15880;BME280;61999;51.514;14.614;2022-11-23T11:16:19;98916.19;;;8.41;46.69
15880;BME280;61999;51.514;14.614;2022-11-23T11:18:49;98903.06;;;8.41;45.38
15880;BME280;61999;51.514;14.614;2022-11-23T11:21:20;98911.25;;;8.57;44.40
15880;BME280;61999;51.514;14.614;2022-11-23T11:23:53;98901.72;;;8.76;44.07
15880;BME280;61999;51.514;14.614;2022-11-23T11:26:23;98896.72;;;8.92;42.66
15880;BME280;61999;51.514;14.614;2022-11-23T11:28:53;98902.66;;;9.04;42.66
15880;BME280;61999;51.514;14.614;2022-11-23T11:31:46;98890.16;;;9.35;42.92
15880;BME280;61999;51.514;14.614;2022-11-23T11:34:24;98898.34;;;9.59;42.18
15880;BME280;61999;51.514;14.614;2022-11-23T11:37:01;98895.78;;;9.87;40.50
15880;BME280;61999;51.514;14.614;2022-11-23T11:39:39;98897.63;;;10.05;40.47
15880;BME280;61999;51.514;14.614;2022-11-23T11:42:17;98897.50;;;10.24;39.79
15880;BME280;61999;51.514;14.614;2022-11-23T11:44:50;98898.56;;;10.31;38.52
15880;BME280;61999;51.514;14.614;2022-11-23T11:47:29;98907.63;;;10.46;38.54
15880;BME280;61999;51.514;14.614;2022-11-23T11:50:06;98897.00;;;10.38;37.24
15880;BME280;61999;51.514;14.614;2022-11-23T11:52:44;98896.81;;;10.22;37.50
15880;BME280;61999;51.514;14.614;2022-11-23T11:55:20;98897.38;;;10.43;38.09
15880;BME280;61999;51.514;14.614;2022-11-23T11:57:55;98902.00;;;10.77;37.77
15880;BME280;61999;51.514;14.614;2022-11-23T12:00:24;98901.88;;;11.05;38.04
15880;BME280;61999;51.514;14.614;2022-11-23T12:03:05;98905.59;;;11.20;37.52
15880;BME280;61999;51.514;14.614;2022-11-23T12:05:43;98901.72;;;11.50;37.55
15880;BME280;61999;51.514;14.614;2022-11-23T12:08:17;98895.72;;;11.66;37.62
15880;BME280;61999;51.514;14.614;2022-11-23T12:10:51;98899.22;;;11.75;36.52
15880;BME280;61999;51.514;14.614;2022-11-23T12:13:22;98897.91;;;11.45;36.88
15880;BME280;61999;51.514;14.614;2022-11-23T12:16:05;98902.22;;;11.28;36.88
15880;BME280;61999;51.514;14.614;2022-11-23T12:18:55;98900.63;;;11.09;36.78
15880;BME280;61999;51.514;14.614;2022-11-23T12:21:54;98905.69;;;10.84;36.72
15880;BME280;61999;51.514;14.614;2022-11-23T12:24:44;98909.78;;;10.51;36.55
15880;BME280;61999;51.514;14.614;2022-11-23T12:27:27;98903.38;;;10.18;36.50
15880;BME280;61999;51.514;14.614;2022-11-23T12:30:15;98906.00;;;9.90;36.84
15880;BME280;61999;51.514;14.614;2022-11-23T12:33:10;98911.91;;;9.65;37.66
15880;BME280;61999;51.514;14.614;2022-11-23T12:36:12;98903.97;;;9.37;37.76
15880;BME280;61999;51.514;14.614;2022-11-23T12:38:53;98909.84;;;9.11;37.95
15880;BME280;61999;51.514;14.614;2022-11-23T12:41:28;98912.22;;;8.85;37.46
15880;BME280;61999;51.514;14.614;2022-11-23T12:44:35;98912.63;;;8.52;38.12
15880;BME280;61999;51.514;14.614;2022-11-23T12:47:18;98905.09;;;8.28;38.49
15880;BME280;61999;51.514;14.614;2022-11-23T12:50:00;98907.53;;;8.00;38.16
15880;BME280;61999;51.514;14.614;2022-11-23T12:52:57;98904.16;;;7.78;38.83
15880;BME280;61999;51.514;14.614;2022-11-23T12:55:38;98896.03;;;7.61;38.42
15880;BME280;61999;51.514;14.614;2022-11-23T12:58:18;98905.59;;;7.41;38.57
15880;BME280;61999;51.514;14.614;2022-11-23T13:00:54;98903.44;;;7.25;38.67
15880;BME280;61999;51.514;14.614;2022-11-23T13:04:13;98913.03;;;6.94;39.29
15880;BME280;61999;51.514;14.614;2022-11-23T13:10:35;98909.13;;;6.56;39.79
15880;BME280;61999;51.514;14.614;2022-11-23T13:13:27;98911.13;;;6.31;40.39
15880;BME280;61999;51.514;14.614;2022-11-23T13:16:36;98914.69;;;6.19;40.62
15880;BME280;61999;51.514;14.614;2022-11-23T13:19:28;98911.16;;;6.09;40.51
15880;BME280;61999;51.514;14.614;2022-11-23T13:22:10;98904.97;;;5.98;40.93